vendredi 21 février 2014

ALERTE SPOTTING 21/02/14

320 F-HDMF Air Corsica (cyclistes)
   XK4501/XK4500  08h30/09h25
 XK4503/XK4502  15h00/16h10

IL9 Cubana CU-T1250
  CU440/CU441 09h15/11h30

 AR8 Malmo Aviation
   TF850/TF851 11h30/12h20

CJ8 D-CCFF   dpt 13h45

 744 EC-KQC Pullmantur Air
   arv  PLM602P   20h30


320 EC-JZQ Vueling (stickers Thanks)
  VY8022/VY8023  21h05/21h55


Manque les prévisions/immats UX / BE / AZ / TP / BA / TU / certains AH
*** Heures en Local Time / prévisions soumises
 à modifications de dernières minutes ***

le TAF de la journée



METAR: LFPO 210330Z 21009KT 190V250 9999 SCT015 SCT033 BKN120 07/05
Q1007 NOSIG=
TAF LONG: LFPO 202300Z 2100/2206 21008KT CAVOK TEMPO 2100/2118 SCT012TCU
BKN025 PROB30 TEMPO 2110/2117 4000 -TSRA SCT012CB BKN018 BECMG
2203/2206 BKN014= 
   Les logs des jours précédents :
 http://www.airkalo.com/ORLYAVIATION/Logdumois.html